createdAt,value
2022-09-21T00:02:29.249Z,20.10
2022-09-21T00:07:31.628Z,20.10
2022-09-21T00:12:34.095Z,20.10
2022-09-21T00:17:37.367Z,20.10
2022-09-21T00:22:39.793Z,20.10
2022-09-21T00:27:42.371Z,20.10
2022-09-21T00:32:44.770Z,20.10
2022-09-21T00:37:47.135Z,20.10
2022-09-21T00:42:49.653Z,20.10
2022-09-21T00:47:53.079Z,20.10
2022-09-21T00:52:57.975Z,20.10
2022-09-21T00:58:05.176Z,20.10
2022-09-21T01:03:09.370Z,19.90
2022-09-21T01:08:14.078Z,20.00
2022-09-21T01:13:37.498Z,20.00
2022-09-21T01:19:06.199Z,20.00
2022-09-21T01:24:31.545Z,20.10
2022-09-21T01:29:59.452Z,20.00
2022-09-21T01:35:17.634Z,20.10
2022-09-21T01:40:35.443Z,20.10
2022-09-21T01:45:45.000Z,20.10
2022-09-21T01:50:52.671Z,20.10
2022-09-21T01:56:20.945Z,19.60
2022-09-21T02:01:27.306Z,19.90
2022-09-21T02:06:31.764Z,20.10
2022-09-21T02:11:34.289Z,20.10
2022-09-21T02:16:42.377Z,20.20
2022-09-21T02:22:10.211Z,20.20
2022-09-21T02:27:22.111Z,20.10
2022-09-21T02:32:27.479Z,20.10
2022-09-21T02:37:39.459Z,19.90
2022-09-21T02:42:45.310Z,20.10
2022-09-21T02:48:15.290Z,20.20
2022-09-21T02:53:26.604Z,20.10
2022-09-21T02:58:30.976Z,20.10
2022-09-21T03:03:33.574Z,20.10
2022-09-21T03:08:35.954Z,19.50
2022-09-21T03:13:38.325Z,20.00
2022-09-21T03:18:43.179Z,20.10
2022-09-21T03:23:45.481Z,20.00
2022-09-21T03:28:49.286Z,19.70
2022-09-21T03:33:51.792Z,20.00
2022-09-21T03:38:54.212Z,20.10
2022-09-21T03:43:56.503Z,20.10
2022-09-21T03:48:58.866Z,19.90
2022-09-21T03:54:01.242Z,20.10
2022-09-21T03:59:03.879Z,20.10
2022-09-21T04:04:06.329Z,20.10
2022-09-21T04:09:08.788Z,20.20
2022-09-21T04:14:12.538Z,20.10
2022-09-21T04:19:14.852Z,20.10
2022-09-21T04:24:19.370Z,20.20
2022-09-21T04:29:21.865Z,20.20
2022-09-21T04:34:24.262Z,20.20
2022-09-21T04:39:26.822Z,20.10
2022-09-21T04:44:30.270Z,20.10
2022-09-21T04:49:32.703Z,20.00
2022-09-21T04:54:35.053Z,20.00
2022-09-21T04:59:37.488Z,20.00
2022-09-21T05:04:39.903Z,19.80
2022-09-21T05:10:01.033Z,19.90
2022-09-21T05:15:03.691Z,19.90
2022-09-21T05:20:06.623Z,19.80
2022-09-21T05:25:09.634Z,19.60
2022-09-21T05:30:12.855Z,19.80
2022-09-21T05:35:23.927Z,19.80
2022-09-21T05:40:27.008Z,19.80
2022-09-21T05:45:29.702Z,19.60
2022-09-21T05:50:44.095Z,19.90
2022-09-21T05:55:56.983Z,19.90
2022-09-21T06:00:59.448Z,19.40
2022-09-21T06:06:02.682Z,20.00
2022-09-21T06:11:05.405Z,20.10
2022-09-21T06:16:08.120Z,19.30
2022-09-21T06:21:10.739Z,19.80
2022-09-21T06:26:13.185Z,19.70
2022-09-21T06:31:15.503Z,19.90
2022-09-21T06:36:17.951Z,20.00
2022-09-21T06:41:21.464Z,19.40
2022-09-21T06:46:24.331Z,19.60
2022-09-21T06:51:26.769Z,19.90
2022-09-21T06:56:29.181Z,19.20
2022-09-21T07:01:31.636Z,20.00
2022-09-21T07:06:34.374Z,20.10
2022-09-21T07:11:37.000Z,20.30
2022-09-21T07:16:40.004Z,19.60
2022-09-21T07:21:42.511Z,20.10
2022-09-21T07:26:44.973Z,20.20
2022-09-21T07:31:48.453Z,20.10
2022-09-21T07:36:50.885Z,20.00
2022-09-21T07:41:53.592Z,19.80
2022-09-21T07:46:56.181Z,19.70
2022-09-21T07:52:03.553Z,19.40
2022-09-21T07:57:25.893Z,20.20
2022-09-21T08:02:28.360Z,20.20
2022-09-21T08:07:31.134Z,20.00
2022-09-21T08:12:33.527Z,19.80
2022-09-21T08:17:38.075Z,19.90
2022-09-21T08:22:41.028Z,19.30
2022-09-21T08:27:43.447Z,18.90
2022-09-21T08:32:52.108Z,19.10
2022-09-21T08:37:54.935Z,18.90
2022-09-21T08:43:15.567Z,18.70
2022-09-21T08:48:29.105Z,19.50
2022-09-21T08:53:49.236Z,19.40
2022-09-21T08:58:51.721Z,18.90
2022-09-21T09:09:17.884Z,14.40
2022-09-21T09:14:29.997Z,14.10
2022-09-21T09:19:41.774Z,14.30
2022-09-21T09:24:49.678Z,13.80
2022-09-21T09:35:20.367Z,13.70
2022-09-21T09:40:51.930Z,14.20
2022-09-21T09:46:12.071Z,14.00
2022-09-21T09:51:15.857Z,14.30
2022-09-21T09:56:18.726Z,14.60
2022-09-21T10:01:37.594Z,14.60
2022-09-21T10:06:43.810Z,14.60
2022-09-21T10:11:49.333Z,14.60
2022-09-21T10:16:53.505Z,13.90
2022-09-21T10:22:00.963Z,13.80
2022-09-21T10:27:05.348Z,13.90
2022-09-21T10:32:14.745Z,14.20
2022-09-21T10:37:37.476Z,14.60
2022-09-21T10:42:43.787Z,15.10
2022-09-21T10:47:57.569Z,14.50
2022-09-21T10:53:08.984Z,13.80
2022-09-21T10:58:13.259Z,13.90
2022-09-21T11:03:30.594Z,14.00
2022-09-21T11:08:43.961Z,14.10
2022-09-21T11:14:07.450Z,14.30
2022-09-21T11:19:24.884Z,12.90
2022-09-21T11:24:52.770Z,11.10
2022-09-21T11:30:11.377Z,11.40
2022-09-21T11:35:34.084Z,11.70
2022-09-21T11:40:42.693Z,12.20
2022-09-21T11:46:10.036Z,12.60
2022-09-21T11:51:43.858Z,12.50
2022-09-21T11:56:52.198Z,12.60
2022-09-21T12:02:29.065Z,12.70
2022-09-21T12:07:59.674Z,12.80
2022-09-21T12:13:04.872Z,13.00
2022-09-21T12:18:30.091Z,13.00
2022-09-21T12:23:53.057Z,13.00
2022-09-21T12:29:01.944Z,12.90
2022-09-21T12:34:18.954Z,12.80
2022-09-21T12:39:31.155Z,12.70
2022-09-21T12:45:05.098Z,13.10
2022-09-21T12:50:42.053Z,13.10
2022-09-21T12:56:07.662Z,13.20
2022-09-21T13:01:36.867Z,13.50
2022-09-21T13:06:42.904Z,14.00
2022-09-21T13:11:54.491Z,15.30
2022-09-21T13:17:01.088Z,14.90
2022-09-21T13:22:19.987Z,14.90
2022-09-21T13:27:22.568Z,14.00
2022-09-21T13:32:45.022Z,13.10
2022-09-21T13:38:23.377Z,12.90
2022-09-21T13:43:47.037Z,15.20
2022-09-21T13:48:53.947Z,18.10
2022-09-21T13:53:59.375Z,19.10
2022-09-21T13:59:01.767Z,19.60
2022-09-21T14:04:16.260Z,20.00
2022-09-21T14:09:40.956Z,20.50
2022-09-21T14:14:43.311Z,20.80
2022-09-21T14:19:54.715Z,20.80
2022-09-21T14:25:24.365Z,20.70
2022-09-21T14:30:34.515Z,21.10
2022-09-21T14:35:45.812Z,21.20
2022-09-21T14:40:54.879Z,21.00
2022-09-21T14:46:09.023Z,20.20
2022-09-21T14:51:38.321Z,20.50
2022-09-21T14:56:51.763Z,20.90
2022-09-21T15:02:02.446Z,19.90
2022-09-21T15:07:49.907Z,20.80
2022-09-21T15:13:20.274Z,21.20
2022-09-21T15:18:23.715Z,21.20
2022-09-21T15:23:26.366Z,20.90
2022-09-21T15:29:04.962Z,21.10
2022-09-21T15:34:02.731Z,20.80
2022-09-21T15:39:06.190Z,19.80
2022-09-21T15:44:16.306Z,20.10
2022-09-21T15:49:23.513Z,20.70
2022-09-21T15:54:45.984Z,21.00
2022-09-21T15:59:48.407Z,21.00
2022-09-21T16:04:52.293Z,21.20
2022-09-21T16:09:55.037Z,21.10
2022-09-21T16:15:08.457Z,21.00
2022-09-21T16:20:20.546Z,21.10
2022-09-21T16:25:34.662Z,21.10
2022-09-21T16:31:22.807Z,21.10
2022-09-21T16:36:31.923Z,21.10
2022-09-21T16:41:38.839Z,21.10
2022-09-21T16:46:44.010Z,21.00
2022-09-21T16:51:49.835Z,20.90
2022-09-21T16:56:54.437Z,20.90
2022-09-21T17:01:58.286Z,20.80
2022-09-21T17:07:01.517Z,20.80
2022-09-21T17:12:06.989Z,20.70
2022-09-21T17:17:18.425Z,20.70
2022-09-21T17:22:21.952Z,20.70
2022-09-21T17:27:26.797Z,20.60
2022-09-21T17:32:29.529Z,20.60
2022-09-21T17:37:33.908Z,20.50
2022-09-21T17:42:41.238Z,20.50
2022-09-21T17:47:43.966Z,20.40
2022-09-21T17:53:05.119Z,20.40
2022-09-21T17:58:23.425Z,20.40
2022-09-21T18:03:28.786Z,20.40
2022-09-21T18:08:34.058Z,20.40
2022-09-21T18:13:39.172Z,20.40
2022-09-21T18:18:47.071Z,20.40
2022-09-21T18:24:14.864Z,20.40
2022-09-21T18:29:43.895Z,20.40
2022-09-21T18:35:20.544Z,20.50
2022-09-21T18:40:56.440Z,20.50
2022-09-21T18:46:05.608Z,20.50
2022-09-21T18:51:27.344Z,20.40
2022-09-21T18:56:36.028Z,20.40
2022-09-21T19:01:38.937Z,20.40
2022-09-21T19:06:59.903Z,20.40
2022-09-21T19:12:21.088Z,20.40
2022-09-21T19:17:42.319Z,20.40
2022-09-21T19:22:48.564Z,20.40
2022-09-21T19:27:59.321Z,20.40
2022-09-21T19:33:45.556Z,20.40
2022-09-21T19:38:42.229Z,20.30
2022-09-21T19:44:29.730Z,20.30
2022-09-21T19:49:55.743Z,20.30
2022-09-21T19:55:17.169Z,20.30
2022-09-21T20:00:21.177Z,20.30
2022-09-21T20:05:34.338Z,20.30
2022-09-21T20:10:49.009Z,18.70
2022-09-21T20:15:57.093Z,19.90
2022-09-21T20:21:02.169Z,20.20
2022-09-21T20:26:14.491Z,20.30
2022-09-21T20:31:16.855Z,20.30
2022-09-21T20:36:19.254Z,20.30
2022-09-21T20:41:24.467Z,20.40
2022-09-21T20:46:26.870Z,20.40
2022-09-21T20:51:29.364Z,20.40
2022-09-21T20:56:31.831Z,20.30
2022-09-21T21:01:34.337Z,20.30
2022-09-21T21:06:37.806Z,20.30
2022-09-21T21:11:40.958Z,20.30
2022-09-21T21:16:43.894Z,20.30
2022-09-21T21:21:46.340Z,20.10
2022-09-21T21:27:01.750Z,20.10
2022-09-21T21:32:05.451Z,20.20
2022-09-21T21:37:09.174Z,20.20
2022-09-21T21:42:11.939Z,20.20
2022-09-21T21:47:38.076Z,20.20
2022-09-21T21:52:37.447Z,20.20
2022-09-21T21:57:40.071Z,20.10
2022-09-21T22:02:42.452Z,20.20
2022-09-21T22:07:44.796Z,20.10
2022-09-21T22:12:47.242Z,20.10
2022-09-21T22:17:49.573Z,20.00
2022-09-21T22:22:51.943Z,20.00
2022-09-21T22:27:55.563Z,19.90
2022-09-21T22:32:58.254Z,19.90
2022-09-21T22:38:01.663Z,19.90
2022-09-21T22:43:04.051Z,19.90
2022-09-21T22:48:06.325Z,19.90
2022-09-21T22:53:08.684Z,19.90
2022-09-21T22:58:11.219Z,19.90
2022-09-21T23:03:13.766Z,20.00
2022-09-21T23:08:16.120Z,20.00
2022-09-21T23:13:18.590Z,20.00
2022-09-21T23:18:21.212Z,20.00
2022-09-21T23:23:24.349Z,20.00
2022-09-21T23:28:26.778Z,20.00
2022-09-21T23:33:40.944Z,20.00
2022-09-21T23:38:44.234Z,20.00
2022-09-21T23:43:47.077Z,20.00
2022-09-21T23:48:50.247Z,20.00
2022-09-21T23:53:52.836Z,20.00
2022-09-21T23:58:55.718Z,20.00
